Sealand Washington — 9HA3421 — position and weather

sailwx.info

Track history (hours):
 
Tides and Currents Weather Stations Pressure Air Temp Water Temp Dewpoint Dewpoint Depression Visibility Wind Speed Wind Dir Waves Ship Positions

Sealand Washington

Last reported at 2017-Sep-22 00:15 UTC. Time now 2017-Sep-23 07:23 UTC.
Position N 39°56' E 001°07'.

Length 304 m; draft 12.5 m.

Type: Ship (hazmat cat C). MMSI: 229577000.

Date/timePositionNaut miles runAvg speedWind from/ knotsBaromVisibWave heightAir tempDewpointWater temp
2017-Sep-22 00:15N 39°56' E 001°07'310.8
2017-Sep-21 23:59N 39°57' E 001°10'510.8
2017-Sep-21 23:30N 40°00' E 001°16'510.6
2017-Sep-21 23:00N 40°03' E 001°22'510.3
2017-Sep-21 22:30N 40°06' E 001°27'510.1
2017-Sep-21 22:00N 40°09' E 001°33'510.0
2017-Sep-21 21:30N 40°11' E 001°39'510.1
2017-Sep-21 21:00N 40°14' E 001°44'510.1
2017-Sep-21 20:30N 40°16' E 001°50'510.1
2017-Sep-21 20:00N 40°19' E 001°55'510.1
2017-Sep-21 19:30N 40°22' E 002°01'510.2
2017-Sep-21 19:00N 40°25' E 002°06'510.1
2017-Sep-21 18:30N 40°28' E 002°12'510.3
2017-Sep-21 18:00N 40°30' E 002°18'510.3
2017-Sep-21 17:30N 40°33' E 002°23'510.4
2017-Sep-21 17:00N 40°36' E 002°29'510.4
2017-Sep-21 16:30N 40°39' E 002°35'510.2
2017-Sep-21 16:00N 40°41' E 002°40'510.1
2017-Sep-21 15:30N 40°44' E 002°46'510.1
2017-Sep-21 15:00N 40°47' E 002°52'510.1
2017-Sep-21 14:30N 40°50' E 002°57'510.2
2017-Sep-21 14:00N 40°52' E 003°03'510.1
2017-Sep-21 13:30N 40°55' E 003°08'610.4
2017-Sep-21 12:58N 40°59' E 003°14'610.9
2017-Sep-21 12:28N 41°02' E 003°21'611.3
2017-Sep-21 11:55N 41°05' E 003°28'4612.7
2017-Sep-21 08:19N 41°30' E 004°19'10112.9
2017-Sep-21 00:29N 42°25' E 006°12'612.8
2017-Sep-21 00:00N 42°28' E 006°20'2612.7
2017-Sep-20 21:56N 42°43' E 006°49'512.2
2017-Sep-20 21:30N 42°46' E 006°55'612.4
2017-Sep-20 21:00N 42°49' E 007°02'612.5
2017-Sep-20 20:30N 42°53' E 007°09'612.3
2017-Sep-20 20:00N 42°56' E 007°16'612.5
2017-Sep-20 19:30N 42°59' E 007°23'612.7
2017-Sep-20 19:00N 43°03' E 007°30'612.6
2017-Sep-20 18:30N 43°06' E 007°38'612.6
2017-Sep-20 18:00N 43°10' E 007°45'612.4
2017-Sep-20 17:30N 43°13' E 007°52'612.4
2017-Sep-20 17:00N 43°17' E 007°59'612.2
2017-Sep-20 16:30N 43°20' E 008°06'612.2
2017-Sep-20 16:00N 43°25' E 008°11'612.0
2017-Sep-20 15:30N 43°30' E 008°15'612.1
2017-Sep-20 15:00N 43°35' E 008°20'1212.2
2017-Sep-20 13:59N 43°46' E 008°28'612.2
2017-Sep-20 13:30N 43°51' E 008°32'612.1
2017-Sep-20 13:00N 43°57' E 008°35'612.4
2017-Sep-20 12:30N 44°03' E 008°36'612.5
2017-Sep-20 12:00N 44°09' E 008°38'612.8
2017-Sep-20 11:30N 44°15' E 008°40'4 7.9
2017-Sep-20 11:00N 44°19' E 008°41'4 7.9
2017-Sep-20 10:30N 44°23' E 008°43'3 6.5
2017-Sep-20 10:00N 44°25' E 008°47'0 0.9
2017-Sep-20 09:29N 44°25' E 008°48'0 0.0
2017-Sep-20 08:59N 44°25' E 008°48'0 0.0
2017-Sep-20 08:26N 44°25' E 008°48'0 0.0
2017-Sep-20 07:56N 44°25' E 008°48'0 0.0
2017-Sep-20 07:23N 44°25' E 008°48'0 0.0
2017-Sep-20 06:59N 44°25' E 008°48'0 0.0
2017-Sep-20 06:26N 44°25' E 008°48'0 0.0
2017-Sep-20 05:59N 44°25' E 008°48'0 0.0
2017-Sep-20 05:29N 44°25' E 008°48'0 0.0
2017-Sep-20 04:59N 44°25' E 008°48'0 0.0
2017-Sep-20 04:29N 44°25' E 008°48'0 0.0
2017-Sep-20 03:59N 44°25' E 008°48'0 0.0
2017-Sep-20 03:29N 44°25' E 008°48'0 0.0
2017-Sep-20 02:59N 44°25' E 008°48'0 0.0
2017-Sep-20 02:29N 44°25' E 008°48'0 0.0
2017-Sep-20 01:59N 44°25' E 008°48'0 0.0
2017-Sep-20 01:29N 44°25' E 008°48'0 0.0
2017-Sep-20 00:59N 44°25' E 008°48'0 0.0
2017-Sep-20 00:29N 44°25' E 008°48'0 0.0
2017-Sep-19 23:59N 44°25' E 008°48'0 0.0
2017-Sep-19 23:23N 44°25' E 008°48'0 0.0
2017-Sep-19 22:59N 44°25' E 008°48'0 0.0
2017-Sep-19 22:29N 44°25' E 008°48'0 0.0
2017-Sep-19 21:59N 44°25' E 008°48'0 0.0
2017-Sep-19 21:29N 44°25' E 008°48'0 0.0
2017-Sep-19 20:59N 44°25' E 008°48'0 0.0
2017-Sep-19 20:23N 44°25' E 008°48'0 0.0
2017-Sep-19 19:59N 44°25' E 008°48'0 0.0
2017-Sep-19 19:29N 44°25' E 008°48'0 0.0
2017-Sep-19 18:59N 44°25' E 008°48'0 0.0
2017-Sep-19 18:29N 44°25' E 008°48'0 0.0
2017-Sep-19 17:59N 44°25' E 008°48'0 0.0
2017-Sep-19 17:29N 44°25' E 008°48'0 0.0
2017-Sep-19 16:59N 44°25' E 008°48'0 0.0
2017-Sep-19 16:29N 44°25' E 008°48'0 0.0
2017-Sep-19 15:59N 44°25' E 008°48'0 0.0
2017-Sep-19 15:29N 44°25' E 008°48'0 0.0
2017-Sep-19 14:59N 44°25' E 008°48'0 0.0
2017-Sep-19 14:29N 44°25' E 008°48'0 0.0
2017-Sep-19 13:59N 44°25' E 008°48'0 0.0
2017-Sep-19 13:29N 44°25' E 008°48'0 0.0
2017-Sep-19 12:59N 44°25' E 008°48'0 0.0
2017-Sep-19 12:29N 44°25' E 008°48'0 0.0
2017-Sep-19 11:59N 44°25' E 008°48'0 0.5
2017-Sep-19 11:31N 44°25' E 008°47'3 5.8
2017-Sep-19 11:01N 44°23' E 008°44'4 7.7
2017-Sep-19 10:30N 44°19' E 008°44'3 5.6
2017-Sep-19 10:01N 44°17' E 008°46'2 5.0
2017-Sep-19 09:31N 44°15' E 008°47'0 0.4
2017-Sep-19 09:01N 44°15' E 008°47'0 0.4
2017-Sep-19 08:31N 44°15' E 008°48'0 0.5
2017-Sep-19 08:00N 44°15' E 008°48'0 0.2
2017-Sep-19 07:31N 44°15' E 008°48'0 0.2
2017-Sep-19 07:01N 44°15' E 008°48'0 0.2
2017-Sep-19 06:31N 44°15' E 008°48'1 1.4
2017-Sep-19 06:00N 44°15' E 008°47'2 3.9
2017-Sep-19 05:30N 44°14' E 008°45'0 1.0
2017-Sep-19 05:00N 44°14' E 008°46'1 1.1
2017-Sep-19 04:30N 44°14' E 008°46'1 1.7
2017-Sep-19 04:00N 44°15' E 008°47'1 1.4
2017-Sep-19 03:31N 44°15' E 008°48'1 1.1
2017-Sep-19 03:01N 44°16' E 008°48'0 0.5
2017-Sep-19 02:31N 44°16' E 008°48'0 0.7
2017-Sep-19 02:00N 44°16' E 008°48'0 0.3
2017-Sep-19 01:30N 44°16' E 008°48'0 0.2
2017-Sep-19 01:00N 44°16' E 008°48'0 0.3
2017-Sep-19 00:30N 44°16' E 008°48'0 0.5
2017-Sep-19 00:00N 44°16' E 008°48'0 0.8
2017-Sep-18 23:31N 44°15' E 008°48'1 1.5
2017-Sep-18 23:00N 44°15' E 008°48'3 5.8
2017-Sep-18 22:30N 44°13' E 008°51'510.5
2017-Sep-18 22:00N 44°10' E 008°57'510.9
2017-Sep-18 21:31N 44°09' E 009°05'510.6
2017-Sep-18 21:01N 44°07' E 009°12'510.4
2017-Sep-18 20:31N 44°05' E 009°19'510.4
2017-Sep-18 20:01N 44°04' E 009°25'510.3
2017-Sep-18 19:31N 44°02' E 009°32'510.4
2017-Sep-18 19:00N 44°00' E 009°39'510.3
2017-Sep-18 18:31N 43°60' E 009°46'5 9.4
2017-Sep-18 18:01N 44°01' E 009°52'4 8.6
2017-Sep-18 17:30N 44°05' E 009°51'1 2.5
2017-Sep-18 16:58N 44°06' E 009°51'0 0.0
2017-Sep-18 16:28N 44°06' E 009°51'0 0.0
2017-Sep-18 15:58N 44°06' E 009°51'0 0.0
2017-Sep-18 15:28N 44°06' E 009°51'0 0.0
2017-Sep-18 14:55N 44°06' E 009°51'0 0.0
2017-Sep-18 14:28N 44°06' E 009°51'0 0.0
2017-Sep-18 13:58N 44°06' E 009°51'0 0.0
2017-Sep-18 13:28N 44°06' E 009°51'0 0.0
2017-Sep-18 12:58N 44°06' E 009°51'0 0.0
2017-Sep-18 12:28N 44°06' E 009°51'0 0.0
2017-Sep-18 11:58N 44°06' E 009°51'0 0.0
2017-Sep-18 11:28N 44°06' E 009°51'0 0.0
2017-Sep-18 10:55N 44°06' E 009°51'0 0.0
2017-Sep-18 10:28N 44°06' E 009°51'0 0.0
2017-Sep-18 09:58N 44°06' E 009°51'0 0.0
2017-Sep-18 09:28N 44°06' E 009°51'0 0.0
2017-Sep-18 08:58N 44°06' E 009°51'0 0.0
2017-Sep-18 08:28N 44°06' E 009°51'0 0.0
2017-Sep-18 07:58N 44°06' E 009°51'0 0.0
2017-Sep-18 07:28N 44°06' E 009°51'0 0.0
2017-Sep-18 06:58N 44°06' E 009°51'0 0.0
2017-Sep-18 06:28N 44°06' E 009°51'0 0.0
2017-Sep-18 05:58N 44°06' E 009°51'0 0.0
2017-Sep-18 05:25N 44°06' E 009°51'0 0.0
2017-Sep-18 04:58N 44°06' E 009°51'0 0.0
2017-Sep-18 04:28N 44°06' E 009°51'0 0.0
2017-Sep-18 03:58N 44°06' E 009°51'0 0.0
2017-Sep-18 03:28N 44°06' E 009°51'0 0.0
2017-Sep-18 02:55N 44°06' E 009°51'0 0.0
2017-Sep-18 02:28N 44°06' E 009°51'0 0.0
2017-Sep-18 01:58N 44°06' E 009°51'0 0.0
2017-Sep-18 01:28N 44°06' E 009°51'0 0.0
2017-Sep-18 00:58N 44°06' E 009°51'0 0.0
2017-Sep-18 00:28N 44°06' E 009°51'0 0.0
2017-Sep-17 23:58N 44°06' E 009°51'0 0.0
2017-Sep-17 23:29N 44°06' E 009°51'1 1.2
2017-Sep-17 23:01N 44°06' E 009°51'4 7.5
2017-Sep-17 22:31N 44°03' E 009°53'4 8.5
2017-Sep-17 22:01N 43°60' E 009°58'3 5.8
2017-Sep-17 21:31N 43°58' E 009°55'2 4.8
2017-Sep-17 21:01N 43°58' E 009°51'0 0.1
2017-Sep-17 20:28N 43°58' E 009°51'0 0.2
2017-Sep-17 19:58N 43°58' E 009°51'0 0.1
2017-Sep-17 19:28N 43°58' E 009°51'0 0.0
2017-Sep-17 18:58N 43°58' E 009°51'0 0.0
2017-Sep-17 18:28N 43°58' E 009°51'0 0.1
2017-Sep-17 17:58N 43°58' E 009°51'0 0.1
2017-Sep-17 17:28N 43°58' E 009°51'0 0.0
2017-Sep-17 16:58N 43°58' E 009°51'0 0.1
2017-Sep-17 16:28N 43°58' E 009°51'0 0.1
2017-Sep-17 15:58N 43°58' E 009°51'0 0.1
2017-Sep-17 15:28N 43°58' E 009°51'0 0.0
2017-Sep-17 14:58N 43°58' E 009°51'0 0.2
2017-Sep-17 14:25N 43°58' E 009°51'0 0.0
2017-Sep-17 13:58N 43°58' E 009°51'0 0.1
2017-Sep-17 13:28N 43°58' E 009°51'0 0.1
2017-Sep-17 12:58N 43°58' E 009°51'0 0.1
2017-Sep-17 12:22N 43°58' E 009°51'0 0.1
2017-Sep-17 11:58N 43°58' E 009°51'0 0.1
2017-Sep-17 11:28N 43°58' E 009°51'0 0.0
2017-Sep-17 10:58N 43°58' E 009°51'0 0.1
2017-Sep-17 10:28N 43°58' E 009°51'0 0.0
2017-Sep-17 09:58N 43°58' E 009°51'0 0.1
2017-Sep-17 09:28N 43°58' E 009°51'0 0.1
2017-Sep-17 08:55N 43°58' E 009°51'0 0.1
2017-Sep-17 08:28N 43°58' E 009°51'0 0.1
2017-Sep-17 07:58N 43°58' E 009°51'0 0.1
2017-Sep-17 07:28N 43°58' E 009°51'0 0.1
2017-Sep-17 06:58N 43°58' E 009°51'0 0.0
2017-Sep-17 06:28N 43°58' E 009°51'0 0.2
2017-Sep-17 05:58N 43°58' E 009°51'0 0.1
2017-Sep-17 05:28N 43°58' E 009°51'0 0.0
2017-Sep-17 04:58N 43°58' E 009°51'0 0.0
2017-Sep-17 04:28N 43°58' E 009°51'0 0.0
2017-Sep-17 03:55N 43°58' E 009°51'0 0.0
2017-Sep-17 03:28N 43°58' E 009°51'0 0.0
2017-Sep-17 02:58N 43°58' E 009°51'0 0.0
2017-Sep-17 02:28N 43°58' E 009°51'0 0.0
2017-Sep-17 01:58N 43°58' E 009°51'0 0.0
2017-Sep-17 01:25N 43°58' E 009°51'0 0.0
2017-Sep-17 00:58N 43°58' E 009°51'0 0.1
2017-Sep-17 00:28N 43°58' E 009°51'0 0.1
2017-Sep-16 23:55N 43°58' E 009°51'0 0.1
2017-Sep-16 23:28N 43°58' E 009°51'0 0.1
2017-Sep-16 22:55N 43°58' E 009°51'0 0.1
2017-Sep-16 22:28N 43°58' E 009°51'0 0.1
2017-Sep-16 21:58N 43°58' E 009°51'0 0.2
2017-Sep-16 21:28N 43°58' E 009°51'0 0.0
2017-Sep-16 20:58N 43°58' E 009°51'0 0.1
2017-Sep-16 20:28N 43°58' E 009°51'0 0.0
2017-Sep-16 19:58N 43°58' E 009°51'0 0.0
2017-Sep-16 19:28N 43°58' E 009°51'0 0.0
2017-Sep-16 18:58N 43°58' E 009°51'0 0.0
2017-Sep-16 18:28N 43°58' E 009°51'0 0.0
2017-Sep-16 17:58N 43°58' E 009°51'0 0.0
2017-Sep-16 17:28N 43°58' E 009°51'0 0.2
2017-Sep-16 16:58N 43°58' E 009°51'0 0.2
2017-Sep-16 16:28N 43°58' E 009°51'0 0.2
2017-Sep-16 16:01N 43°58' E 009°51'2 3.1
2017-Sep-16 15:30N 43°57' E 009°50'4 8.0
2017-Sep-16 15:01N 43°53' E 009°47'816.8
2017-Sep-16 14:30N 43°45' E 009°47'917.6
2017-Sep-16 14:00N 43°36' E 009°48'816.6
2017-Sep-16 13:30N 43°30' E 009°56'917.0
2017-Sep-16 13:00N 43°30' E 010°08'611.6
2017-Sep-16 12:30N 43°32' E 010°16'3 5.5
2017-Sep-16 12:01N 43°34' E 010°18'1 1.2
2017-Sep-16 11:28N 43°35' E 010°18'0 0.0
2017-Sep-16 10:58N 43°35' E 010°18'0 0.0
2017-Sep-16 10:28N 43°35' E 010°18'0 0.0
2017-Sep-16 09:58N 43°35' E 010°18'0 0.0
2017-Sep-16 09:28N 43°35' E 010°18'0 0.0
2017-Sep-16 08:58N 43°35' E 010°18'0 0.0
2017-Sep-16 08:25N 43°35' E 010°18'0 0.0
2017-Sep-16 07:58N 43°35' E 010°18'0 0.0
2017-Sep-16 07:25N 43°35' E 010°18'0 0.0
2017-Sep-16 06:58N 43°35' E 010°18'0 0.0
2017-Sep-16 06:22N 43°35' E 010°18'0 0.0
2017-Sep-16 05:58N 43°35' E 010°18'0 0.0
2017-Sep-16 05:28N 43°35' E 010°18'0 0.0
2017-Sep-16 04:58N 43°35' E 010°18'0 0.0
2017-Sep-16 04:28N 43°35' E 010°18'0 0.0
2017-Sep-16 03:55N 43°35' E 010°18'0 0.0
2017-Sep-16 03:28N 43°35' E 010°18'0 0.0
2017-Sep-16 02:58N 43°35' E 010°18'0 0.0
2017-Sep-16 02:28N 43°35' E 010°18'0 0.0
2017-Sep-16 01:58N 43°35' E 010°18'0 0.0
2017-Sep-16 01:28N 43°35' E 010°18'0 0.0
2017-Sep-16 00:58N 43°35' E 010°18'0 0.0
2017-Sep-16 00:28N 43°35' E 010°18'0 0.0
2017-Sep-15 23:58N 43°35' E 010°18'0 0.0
2017-Sep-15 23:28N 43°35' E 010°18'0 0.0
2017-Sep-15 22:58N 43°35' E 010°18'0 0.0
2017-Sep-15 22:28N 43°35' E 010°18'0 0.0
2017-Sep-15 21:58N 43°35' E 010°18'0 0.0
2017-Sep-15 21:28N 43°35' E 010°18'0 0.0
2017-Sep-15 20:58N 43°35' E 010°18'0 0.0
2017-Sep-15 20:28N 43°35' E 010°18'0 0.0
2017-Sep-15 19:58N 43°35' E 010°18'0 0.0
2017-Sep-15 19:25N 43°35' E 010°18'0 0.0
2017-Sep-15 18:58N 43°35' E 010°18'0 0.0
2017-Sep-15 18:28N 43°35' E 010°18'0 0.0
2017-Sep-15 17:58N 43°35' E 010°18'0 0.0
2017-Sep-15 17:28N 43°35' E 010°18'0 0.0
2017-Sep-15 16:58N 43°35' E 010°18'0 0.0
2017-Sep-15 16:28N 43°35' E 010°18'0 0.6
2017-Sep-15 16:01N 43°34' E 010°18'3 5.4
2017-Sep-15 15:30N 43°32' E 010°16'1 2.7
2017-Sep-15 15:01N 43°31' E 010°15'2 3.8
2017-Sep-15 14:31N 43°30' E 010°13'4 7.8
2017-Sep-15 14:00N 43°26' E 010°11'612.1
2017-Sep-15 13:31N 43°20' E 010°09'612.5
2017-Sep-15 13:01N 43°14' E 010°06'612.9
2017-Sep-15 12:30N 43°08' E 010°04'612.9
2017-Sep-15 12:00N 43°02' E 010°01'612.7
2017-Sep-15 11:30N 42°56' E 009°60'612.6
2017-Sep-15 11:01N 42°49' E 009°60'1212.5
2017-Sep-15 10:02N 42°39' E 010°09'113.7
2017-Sep-15 09:58N 42°39' E 010°10'713.4
2017-Sep-15 09:29N 42°34' E 010°16'613.1
2017-Sep-15 09:00N 42°30' E 010°23'19813.1
2017-Sep-14 17:57N 40°37' E 013°59'613.2
2017-Sep-14 17:30N 40°40' E 014°06'713.4
2017-Sep-14 17:00N 40°44' E 014°13'612.5
2017-Sep-14 16:31N 40°49' E 014°19'2 2.7
2017-Sep-14 15:45N 40°50' E 014°17'0 0.0
2017-Sep-14 15:21N 40°50' E 014°17'0 0.0
2017-Sep-14 14:51N 40°50' E 014°17'0 0.0
2017-Sep-14 14:21N 40°50' E 014°17'0 0.0
2017-Sep-14 13:51N 40°50' E 014°17'0 0.0
2017-Sep-14 13:24N 40°50' E 014°17'0 0.0
2017-Sep-14 12:51N 40°50' E 014°17'0 0.0
2017-Sep-14 12:21N 40°50' E 014°17'0 0.0
2017-Sep-14 11:51N 40°50' E 014°17'0 0.0
2017-Sep-14 10:51N 40°50' E 014°17'0 0.0
2017-Sep-14 10:27N 40°50' E 014°17'0 0.0
2017-Sep-14 09:57N 40°50' E 014°17'0 0.0
2017-Sep-14 08:39N 40°50' E 014°17'0 0.0
2017-Sep-14 08:27N 40°50' E 014°17'0 0.0
2017-Sep-14 08:00N 40°50' E 014°17'0 0.0
2017-Sep-14 07:27N 40°50' E 014°17'17 1.5
2017-Sep-13 20:11N 40°35' E 014°07'4620.9
2017-Sep-13 17:58N 39°54' E 014°35'1021.9
2017-Sep-13 17:30N 39°45' E 014°43'2121.6
2017-Sep-13 16:31N 39°28' E 014°58'018.6
2017-Sep-13 16:30N 39°28' E 014°59'2721.2
2017-Sep-13 15:13N 39°05' E 015°19'1021.0
2017-Sep-13 14:46N 38°57' E 015°26'2221.6
2017-Sep-13 13:45N 38°40' E 015°42'622.7
2017-Sep-13 13:30N 38°35' E 015°46'918.2
2017-Sep-13 12:59N 38°27' E 015°53'1 1.7
2017-Sep-13 12:17N 38°27' E 015°54'0 0.0
2017-Sep-13 11:59N 38°27' E 015°54'0 0.0
2017-Sep-13 11:29N 38°27' E 015°54'0 0.0
2017-Sep-13 10:59N 38°27' E 015°54'0 0.0
2017-Sep-13 10:11N 38°27' E 015°54'0 0.0
2017-Sep-13 09:41N 38°27' E 015°54'0 0.0
2017-Sep-13 09:29N 38°27' E 015°54'0 0.0
2017-Sep-13 08:59N 38°27' E 015°54'0 0.0
2017-Sep-13 08:17N 38°27' E 015°54'0 0.0
2017-Sep-13 07:59N 38°27' E 015°54'0 0.0
2017-Sep-13 07:29N 38°27' E 015°54'0 0.0
2017-Sep-13 05:53N 38°27' E 015°54'0 0.0
2017-Sep-13 05:23N 38°27' E 015°54'0 0.0
2017-Sep-13 04:59N 38°27' E 015°54'0 0.0
2017-Sep-13 04:29N 38°27' E 015°54'0 0.0
2017-Sep-13 03:59N 38°27' E 015°54'0 0.0
2017-Sep-12 16:14N 38°27' E 015°54'1 3.0
2017-Sep-12 15:56N 38°28' E 015°55'0 0.0
2017-Sep-12 15:29N 38°28' E 015°55'0 0.0
2017-Sep-12 14:59N 38°28' E 015°55'0 0.0
2017-Sep-12 14:29N 38°28' E 015°55'0 0.0
2017-Sep-12 13:26N 38°28' E 015°55'0 0.0
2017-Sep-12 12:56N 38°28' E 015°55'0 0.0
2017-Sep-12 12:26N 38°28' E 015°55'0 0.0
2017-Sep-12 11:26N 38°28' E 015°55'0 0.0
2017-Sep-12 10:38N 38°28' E 015°55'0 0.0
2017-Sep-12 10:20N 38°28' E 015°55'0 0.0
2017-Sep-12 09:50N 38°28' E 015°55'0 0.0
2017-Sep-12 09:26N 38°28' E 015°55'0 0.0
2017-Sep-12 08:44N 38°28' E 015°55'0 0.0
2017-Sep-12 07:50N 38°28' E 015°55'0 0.0
2017-Sep-12 07:14N 38°28' E 015°55'0 0.0
2017-Sep-12 06:56N 38°28' E 015°55'0 0.0
2017-Sep-12 06:14N 38°28' E 015°55'0 0.0
2017-Sep-12 05:44N 38°28' E 015°55'0 0.0
2017-Sep-12 05:26N 38°28' E 015°55'0 0.0
2017-Sep-12 03:56N 38°28' E 015°55'0 0.0
2017-Sep-12 03:26N 38°28' E 015°55'0 0.0
2017-Sep-12 02:56N 38°28' E 015°55'0 0.0
2017-Sep-12 02:20N 38°28' E 015°55'0 0.0
2017-Sep-12 01:50N 38°28' E 015°55'0 0.0
2017-Sep-12 01:26N 38°28' E 015°55'0 0.0
2017-Sep-12 00:50N 38°28' E 015°55'0 0.0
2017-Sep-12 00:26N 38°28' E 015°55'  
Track history (hours):
 
Tides and Currents Weather Stations Pressure Air Temp Water Temp Dewpoint Dewpoint Depression Visibility Wind Speed Wind Dir Waves Ship Positions

Sealand Washington

Last reported at 2017-Sep-22 00:15 UTC. Time now 2017-Sep-23 07:23 UTC.
Position N 39°56' E 001°07'.

Length 304 m; draft 12.5 m.

Type: Ship (hazmat cat C). MMSI: 229577000.

Date/timePositionNaut miles runAvg speedWind from/ knotsBaromVisibWave heightAir tempDewpointWater temp
2017-Sep-22 00:15N 39°56' E 001°07'310.8
2017-Sep-21 23:59N 39°57' E 001°10'510.8
2017-Sep-21 23:30N 40°00' E 001°16'510.6
2017-Sep-21 23:00N 40°03' E 001°22'510.3
2017-Sep-21 22:30N 40°06' E 001°27'510.1
2017-Sep-21 22:00N 40°09' E 001°33'510.0
2017-Sep-21 21:30N 40°11' E 001°39'510.1
2017-Sep-21 21:00N 40°14' E 001°44'510.1
2017-Sep-21 20:30N 40°16' E 001°50'510.1
2017-Sep-21 20:00N 40°19' E 001°55'510.1
2017-Sep-21 19:30N 40°22' E 002°01'510.2
2017-Sep-21 19:00N 40°25' E 002°06'510.1
2017-Sep-21 18:30N 40°28' E 002°12'510.3
2017-Sep-21 18:00N 40°30' E 002°18'510.3
2017-Sep-21 17:30N 40°33' E 002°23'510.4
2017-Sep-21 17:00N 40°36' E 002°29'510.4
2017-Sep-21 16:30N 40°39' E 002°35'510.2
2017-Sep-21 16:00N 40°41' E 002°40'510.1
2017-Sep-21 15:30N 40°44' E 002°46'510.1
2017-Sep-21 15:00N 40°47' E 002°52'510.1
2017-Sep-21 14:30N 40°50' E 002°57'510.2
2017-Sep-21 14:00N 40°52' E 003°03'510.1
2017-Sep-21 13:30N 40°55' E 003°08'610.4
2017-Sep-21 12:58N 40°59' E 003°14'610.9
2017-Sep-21 12:28N 41°02' E 003°21'611.3
2017-Sep-21 11:55N 41°05' E 003°28'4612.7
2017-Sep-21 08:19N 41°30' E 004°19'10112.9
2017-Sep-21 00:29N 42°25' E 006°12'612.8
2017-Sep-21 00:00N 42°28' E 006°20'2612.7
2017-Sep-20 21:56N 42°43' E 006°49'512.2
2017-Sep-20 21:30N 42°46' E 006°55'612.4
2017-Sep-20 21:00N 42°49' E 007°02'612.5
2017-Sep-20 20:30N 42°53' E 007°09'612.3
2017-Sep-20 20:00N 42°56' E 007°16'612.5
2017-Sep-20 19:30N 42°59' E 007°23'612.7
2017-Sep-20 19:00N 43°03' E 007°30'612.6
2017-Sep-20 18:30N 43°06' E 007°38'612.6
2017-Sep-20 18:00N 43°10' E 007°45'612.4
2017-Sep-20 17:30N 43°13' E 007°52'612.4
2017-Sep-20 17:00N 43°17' E 007°59'612.2
2017-Sep-20 16:30N 43°20' E 008°06'612.2
2017-Sep-20 16:00N 43°25' E 008°11'612.0
2017-Sep-20 15:30N 43°30' E 008°15'612.1
2017-Sep-20 15:00N 43°35' E 008°20'1212.2
2017-Sep-20 13:59N 43°46' E 008°28'612.2
2017-Sep-20 13:30N 43°51' E 008°32'612.1
2017-Sep-20 13:00N 43°57' E 008°35'612.4
2017-Sep-20 12:30N 44°03' E 008°36'612.5
2017-Sep-20 12:00N 44°09' E 008°38'612.8
2017-Sep-20 11:30N 44°15' E 008°40'4 7.9
2017-Sep-20 11:00N 44°19' E 008°41'4 7.9
2017-Sep-20 10:30N 44°23' E 008°43'3 6.5
2017-Sep-20 10:00N 44°25' E 008°47'0 0.9
2017-Sep-20 09:29N 44°25' E 008°48'0 0.0
2017-Sep-20 08:59N 44°25' E 008°48'0 0.0
2017-Sep-20 08:26N 44°25' E 008°48'0 0.0
2017-Sep-20 07:56N 44°25' E 008°48'0 0.0
2017-Sep-20 07:23N 44°25' E 008°48'0 0.0
2017-Sep-20 06:59N 44°25' E 008°48'0 0.0
2017-Sep-20 06:26N 44°25' E 008°48'0 0.0
2017-Sep-20 05:59N 44°25' E 008°48'0 0.0
2017-Sep-20 05:29N 44°25' E 008°48'0 0.0
2017-Sep-20 04:59N 44°25' E 008°48'0 0.0
2017-Sep-20 04:29N 44°25' E 008°48'0 0.0
2017-Sep-20 03:59N 44°25' E 008°48'0 0.0
2017-Sep-20 03:29N 44°25' E 008°48'0 0.0
2017-Sep-20 02:59N 44°25' E 008°48'0 0.0
2017-Sep-20 02:29N 44°25' E 008°48'0 0.0
2017-Sep-20 01:59N 44°25' E 008°48'0 0.0
2017-Sep-20 01:29N 44°25' E 008°48'0 0.0
2017-Sep-20 00:59N 44°25' E 008°48'0 0.0
2017-Sep-20 00:29N 44°25' E 008°48'0 0.0
2017-Sep-19 23:59N 44°25' E 008°48'0 0.0
2017-Sep-19 23:23N 44°25' E 008°48'0 0.0
2017-Sep-19 22:59N 44°25' E 008°48'0 0.0
2017-Sep-19 22:29N 44°25' E 008°48'0 0.0
2017-Sep-19 21:59N 44°25' E 008°48'0 0.0
2017-Sep-19 21:29N 44°25' E 008°48'0 0.0
2017-Sep-19 20:59N 44°25' E 008°48'0 0.0
2017-Sep-19 20:23N 44°25' E 008°48'0 0.0
2017-Sep-19 19:59N 44°25' E 008°48'0 0.0
2017-Sep-19 19:29N 44°25' E 008°48'0 0.0
2017-Sep-19 18:59N 44°25' E 008°48'0 0.0
2017-Sep-19 18:29N 44°25' E 008°48'0 0.0
2017-Sep-19 17:59N 44°25' E 008°48'0 0.0
2017-Sep-19 17:29N 44°25' E 008°48'0 0.0
2017-Sep-19 16:59N 44°25' E 008°48'0 0.0
2017-Sep-19 16:29N 44°25' E 008°48'0 0.0
2017-Sep-19 15:59N 44°25' E 008°48'0 0.0
2017-Sep-19 15:29N 44°25' E 008°48'0 0.0
2017-Sep-19 14:59N 44°25' E 008°48'0 0.0
2017-Sep-19 14:29N 44°25' E 008°48'0 0.0
2017-Sep-19 13:59N 44°25' E 008°48'0 0.0
2017-Sep-19 13:29N 44°25' E 008°48'0 0.0
2017-Sep-19 12:59N 44°25' E 008°48'0 0.0
2017-Sep-19 12:29N 44°25' E 008°48'0 0.0
2017-Sep-19 11:59N 44°25' E 008°48'0 0.5
2017-Sep-19 11:31N 44°25' E 008°47'3 5.8
2017-Sep-19 11:01N 44°23' E 008°44'4 7.7
2017-Sep-19 10:30N 44°19' E 008°44'3 5.6
2017-Sep-19 10:01N 44°17' E 008°46'2 5.0
2017-Sep-19 09:31N 44°15' E 008°47'0 0.4
2017-Sep-19 09:01N 44°15' E 008°47'0 0.4
2017-Sep-19 08:31N 44°15' E 008°48'0 0.5
2017-Sep-19 08:00N 44°15' E 008°48'0 0.2
2017-Sep-19 07:31N 44°15' E 008°48'0 0.2
2017-Sep-19 07:01N 44°15' E 008°48'0 0.2
2017-Sep-19 06:31N 44°15' E 008°48'1 1.4
2017-Sep-19 06:00N 44°15' E 008°47'2 3.9
2017-Sep-19 05:30N 44°14' E 008°45'0 1.0
2017-Sep-19 05:00N 44°14' E 008°46'1 1.1
2017-Sep-19 04:30N 44°14' E 008°46'1 1.7
2017-Sep-19 04:00N 44°15' E 008°47'1 1.4
2017-Sep-19 03:31N 44°15' E 008°48'1 1.1
2017-Sep-19 03:01N 44°16' E 008°48'0 0.5
2017-Sep-19 02:31N 44°16' E 008°48'0 0.7
2017-Sep-19 02:00N 44°16' E 008°48'0 0.3
2017-Sep-19 01:30N 44°16' E 008°48'0 0.2
2017-Sep-19 01:00N 44°16' E 008°48'0 0.3
2017-Sep-19 00:30N 44°16' E 008°48'0 0.5
2017-Sep-19 00:00N 44°16' E 008°48'0 0.8
2017-Sep-18 23:31N 44°15' E 008°48'1 1.5
2017-Sep-18 23:00N 44°15' E 008°48'3 5.8
2017-Sep-18 22:30N 44°13' E 008°51'510.5
2017-Sep-18 22:00N 44°10' E 008°57'510.9
2017-Sep-18 21:31N 44°09' E 009°05'510.6
2017-Sep-18 21:01N 44°07' E 009°12'510.4
2017-Sep-18 20:31N 44°05' E 009°19'510.4
2017-Sep-18 20:01N 44°04' E 009°25'510.3
2017-Sep-18 19:31N 44°02' E 009°32'510.4
2017-Sep-18 19:00N 44°00' E 009°39'510.3
2017-Sep-18 18:31N 43°60' E 009°46'5 9.4
2017-Sep-18 18:01N 44°01' E 009°52'4 8.6
2017-Sep-18 17:30N 44°05' E 009°51'1 2.5
2017-Sep-18 16:58N 44°06' E 009°51'0 0.0
2017-Sep-18 16:28N 44°06' E 009°51'0 0.0
2017-Sep-18 15:58N 44°06' E 009°51'0 0.0
2017-Sep-18 15:28N 44°06' E 009°51'0 0.0
2017-Sep-18 14:55N 44°06' E 009°51'0 0.0
2017-Sep-18 14:28N 44°06' E 009°51'0 0.0
2017-Sep-18 13:58N 44°06' E 009°51'0 0.0
2017-Sep-18 13:28N 44°06' E 009°51'0 0.0
2017-Sep-18 12:58N 44°06' E 009°51'0 0.0
2017-Sep-18 12:28N 44°06' E 009°51'0 0.0
2017-Sep-18 11:58N 44°06' E 009°51'0 0.0
2017-Sep-18 11:28N 44°06' E 009°51'0 0.0
2017-Sep-18 10:55N 44°06' E 009°51'0 0.0
2017-Sep-18 10:28N 44°06' E 009°51'0 0.0
2017-Sep-18 09:58N 44°06' E 009°51'0 0.0
2017-Sep-18 09:28N 44°06' E 009°51'0 0.0
2017-Sep-18 08:58N 44°06' E 009°51'0 0.0
2017-Sep-18 08:28N 44°06' E 009°51'0 0.0
2017-Sep-18 07:58N 44°06' E 009°51'0 0.0
2017-Sep-18 07:28N 44°06' E 009°51'0 0.0
2017-Sep-18 06:58N 44°06' E 009°51'0 0.0
2017-Sep-18 06:28N 44°06' E 009°51'0 0.0
2017-Sep-18 05:58N 44°06' E 009°51'0 0.0
2017-Sep-18 05:25N 44°06' E 009°51'0 0.0
2017-Sep-18 04:58N 44°06' E 009°51'0 0.0
2017-Sep-18 04:28N 44°06' E 009°51'0 0.0
2017-Sep-18 03:58N 44°06' E 009°51'0 0.0
2017-Sep-18 03:28N 44°06' E 009°51'0 0.0
2017-Sep-18 02:55N 44°06' E 009°51'0 0.0
2017-Sep-18 02:28N 44°06' E 009°51'0 0.0
2017-Sep-18 01:58N 44°06' E 009°51'0 0.0
2017-Sep-18 01:28N 44°06' E 009°51'0 0.0
2017-Sep-18 00:58N 44°06' E 009°51'0 0.0
2017-Sep-18 00:28N 44°06' E 009°51'0 0.0
2017-Sep-17 23:58N 44°06' E 009°51'0 0.0
2017-Sep-17 23:29N 44°06' E 009°51'1 1.2
2017-Sep-17 23:01N 44°06' E 009°51'4 7.5
2017-Sep-17 22:31N 44°03' E 009°53'4 8.5
2017-Sep-17 22:01N 43°60' E 009°58'3 5.8
2017-Sep-17 21:31N 43°58' E 009°55'2 4.8
2017-Sep-17 21:01N 43°58' E 009°51'0 0.1
2017-Sep-17 20:28N 43°58' E 009°51'0 0.2
2017-Sep-17 19:58N 43°58' E 009°51'0 0.1
2017-Sep-17 19:28N 43°58' E 009°51'0 0.0
2017-Sep-17 18:58N 43°58' E 009°51'0 0.0
2017-Sep-17 18:28N 43°58' E 009°51'0 0.1
2017-Sep-17 17:58N 43°58' E 009°51'0 0.1
2017-Sep-17 17:28N 43°58' E 009°51'0 0.0
2017-Sep-17 16:58N 43°58' E 009°51'0 0.1
2017-Sep-17 16:28N 43°58' E 009°51'0 0.1
2017-Sep-17 15:58N 43°58' E 009°51'0 0.1
2017-Sep-17 15:28N 43°58' E 009°51'0 0.0
2017-Sep-17 14:58N 43°58' E 009°51'0 0.2
2017-Sep-17 14:25N 43°58' E 009°51'0 0.0
2017-Sep-17 13:58N 43°58' E 009°51'0 0.1
2017-Sep-17 13:28N 43°58' E 009°51'0 0.1
2017-Sep-17 12:58N 43°58' E 009°51'0 0.1
2017-Sep-17 12:22N 43°58' E 009°51'0 0.1
2017-Sep-17 11:58N 43°58' E 009°51'0 0.1
2017-Sep-17 11:28N 43°58' E 009°51'0 0.0
2017-Sep-17 10:58N 43°58' E 009°51'0 0.1
2017-Sep-17 10:28N 43°58' E 009°51'0 0.0
2017-Sep-17 09:58N 43°58' E 009°51'0 0.1
2017-Sep-17 09:28N 43°58' E 009°51'0 0.1
2017-Sep-17 08:55N 43°58' E 009°51'0 0.1
2017-Sep-17 08:28N 43°58' E 009°51'0 0.1
2017-Sep-17 07:58N 43°58' E 009°51'0 0.1
2017-Sep-17 07:28N 43°58' E 009°51'0 0.1
2017-Sep-17 06:58N 43°58' E 009°51'0 0.0
2017-Sep-17 06:28N 43°58' E 009°51'0 0.2
2017-Sep-17 05:58N 43°58' E 009°51'0 0.1
2017-Sep-17 05:28N 43°58' E 009°51'0 0.0
2017-Sep-17 04:58N 43°58' E 009°51'0 0.0
2017-Sep-17 04:28N 43°58' E 009°51'0 0.0
2017-Sep-17 03:55N 43°58' E 009°51'0 0.0
2017-Sep-17 03:28N 43°58' E 009°51'0 0.0
2017-Sep-17 02:58N 43°58' E 009°51'0 0.0
2017-Sep-17 02:28N 43°58' E 009°51'0 0.0
2017-Sep-17 01:58N 43°58' E 009°51'0 0.0
2017-Sep-17 01:25N 43°58' E 009°51'0 0.0
2017-Sep-17 00:58N 43°58' E 009°51'0 0.1
2017-Sep-17 00:28N 43°58' E 009°51'0 0.1
2017-Sep-16 23:55N 43°58' E 009°51'0 0.1
2017-Sep-16 23:28N 43°58' E 009°51'0 0.1
2017-Sep-16 22:55N 43°58' E 009°51'0 0.1
2017-Sep-16 22:28N 43°58' E 009°51'0 0.1
2017-Sep-16 21:58N 43°58' E 009°51'0 0.2
2017-Sep-16 21:28N 43°58' E 009°51'0 0.0
2017-Sep-16 20:58N 43°58' E 009°51'0 0.1
2017-Sep-16 20:28N 43°58' E 009°51'0 0.0
2017-Sep-16 19:58N 43°58' E 009°51'0 0.0
2017-Sep-16 19:28N 43°58' E 009°51'0 0.0
2017-Sep-16 18:58N 43°58' E 009°51'0 0.0
2017-Sep-16 18:28N 43°58' E 009°51'0 0.0
2017-Sep-16 17:58N 43°58' E 009°51'0 0.0
2017-Sep-16 17:28N 43°58' E 009°51'0 0.2
2017-Sep-16 16:58N 43°58' E 009°51'0 0.2
2017-Sep-16 16:28N 43°58' E 009°51'0 0.2
2017-Sep-16 16:01N 43°58' E 009°51'2 3.1
2017-Sep-16 15:30N 43°57' E 009°50'4 8.0
2017-Sep-16 15:01N 43°53' E 009°47'816.8
2017-Sep-16 14:30N 43°45' E 009°47'917.6
2017-Sep-16 14:00N 43°36' E 009°48'816.6
2017-Sep-16 13:30N 43°30' E 009°56'917.0
2017-Sep-16 13:00N 43°30' E 010°08'611.6
2017-Sep-16 12:30N 43°32' E 010°16'3 5.5
2017-Sep-16 12:01N 43°34' E 010°18'1 1.2
2017-Sep-16 11:28N 43°35' E 010°18'0 0.0
2017-Sep-16 10:58N 43°35' E 010°18'0 0.0
2017-Sep-16 10:28N 43°35' E 010°18'0 0.0
2017-Sep-16 09:58N 43°35' E 010°18'0 0.0
2017-Sep-16 09:28N 43°35' E 010°18'0 0.0
2017-Sep-16 08:58N 43°35' E 010°18'0 0.0
2017-Sep-16 08:25N 43°35' E 010°18'0 0.0
2017-Sep-16 07:58N 43°35' E 010°18'0 0.0
2017-Sep-16 07:25N 43°35' E 010°18'0 0.0
2017-Sep-16 06:58N 43°35' E 010°18'0 0.0
2017-Sep-16 06:22N 43°35' E 010°18'0 0.0
2017-Sep-16 05:58N 43°35' E 010°18'0 0.0
2017-Sep-16 05:28N 43°35' E 010°18'0 0.0
2017-Sep-16 04:58N 43°35' E 010°18'0 0.0
2017-Sep-16 04:28N 43°35' E 010°18'0 0.0
2017-Sep-16 03:55N 43°35' E 010°18'0 0.0
2017-Sep-16 03:28N 43°35' E 010°18'0 0.0
2017-Sep-16 02:58N 43°35' E 010°18'0 0.0
2017-Sep-16 02:28N 43°35' E 010°18'0 0.0
2017-Sep-16 01:58N 43°35' E 010°18'0 0.0
2017-Sep-16 01:28N 43°35' E 010°18'0 0.0
2017-Sep-16 00:58N 43°35' E 010°18'0 0.0
2017-Sep-16 00:28N 43°35' E 010°18'0 0.0
2017-Sep-15 23:58N 43°35' E 010°18'0 0.0
2017-Sep-15 23:28N 43°35' E 010°18'0 0.0
2017-Sep-15 22:58N 43°35' E 010°18'0 0.0
2017-Sep-15 22:28N 43°35' E 010°18'0 0.0
2017-Sep-15 21:58N 43°35' E 010°18'0 0.0
2017-Sep-15 21:28N 43°35' E 010°18'0 0.0
2017-Sep-15 20:58N 43°35' E 010°18'0 0.0
2017-Sep-15 20:28N 43°35' E 010°18'0 0.0
2017-Sep-15 19:58N 43°35' E 010°18'0 0.0
2017-Sep-15 19:25N 43°35' E 010°18'0 0.0
2017-Sep-15 18:58N 43°35' E 010°18'0 0.0
2017-Sep-15 18:28N 43°35' E 010°18'0 0.0
2017-Sep-15 17:58N 43°35' E 010°18'0 0.0
2017-Sep-15 17:28N 43°35' E 010°18'0 0.0
2017-Sep-15 16:58N 43°35' E 010°18'0 0.0
2017-Sep-15 16:28N 43°35' E 010°18'0 0.6
2017-Sep-15 16:01N 43°34' E 010°18'3 5.4
2017-Sep-15 15:30N 43°32' E 010°16'1 2.7
2017-Sep-15 15:01N 43°31' E 010°15'2 3.8
2017-Sep-15 14:31N 43°30' E 010°13'4 7.8
2017-Sep-15 14:00N 43°26' E 010°11'612.1
2017-Sep-15 13:31N 43°20' E 010°09'612.5
2017-Sep-15 13:01N 43°14' E 010°06'612.9
2017-Sep-15 12:30N 43°08' E 010°04'612.9
2017-Sep-15 12:00N 43°02' E 010°01'612.7
2017-Sep-15 11:30N 42°56' E 009°60'612.6
2017-Sep-15 11:01N 42°49' E 009°60'1212.5
2017-Sep-15 10:02N 42°39' E 010°09'113.7
2017-Sep-15 09:58N 42°39' E 010°10'713.4
2017-Sep-15 09:29N 42°34' E 010°16'613.1
2017-Sep-15 09:00N 42°30' E 010°23'19813.1
2017-Sep-14 17:57N 40°37' E 013°59'613.2
2017-Sep-14 17:30N 40°40' E 014°06'713.4
2017-Sep-14 17:00N 40°44' E 014°13'612.5
2017-Sep-14 16:31N 40°49' E 014°19'2 2.7
2017-Sep-14 15:45N 40°50' E 014°17'0 0.0
2017-Sep-14 15:21N 40°50' E 014°17'0 0.0
2017-Sep-14 14:51N 40°50' E 014°17'0 0.0
2017-Sep-14 14:21N 40°50' E 014°17'0 0.0
2017-Sep-14 13:51N 40°50' E 014°17'0 0.0
2017-Sep-14 13:24N 40°50' E 014°17'0 0.0
2017-Sep-14 12:51N 40°50' E 014°17'0 0.0
2017-Sep-14 12:21N 40°50' E 014°17'0 0.0
2017-Sep-14 11:51N 40°50' E 014°17'0 0.0
2017-Sep-14 10:51N 40°50' E 014°17'0 0.0
2017-Sep-14 10:27N 40°50' E 014°17'0 0.0
2017-Sep-14 09:57N 40°50' E 014°17'0 0.0
2017-Sep-14 08:39N 40°50' E 014°17'0 0.0
2017-Sep-14 08:27N 40°50' E 014°17'0 0.0
2017-Sep-14 08:00N 40°50' E 014°17'0 0.0
2017-Sep-14 07:27N 40°50' E 014°17'17 1.5
2017-Sep-13 20:11N 40°35' E 014°07'4620.9
2017-Sep-13 17:58N 39°54' E 014°35'1021.9
2017-Sep-13 17:30N 39°45' E 014°43'2121.6
2017-Sep-13 16:31N 39°28' E 014°58'018.6
2017-Sep-13 16:30N 39°28' E 014°59'2721.2
2017-Sep-13 15:13N 39°05' E 015°19'1021.0
2017-Sep-13 14:46N 38°57' E 015°26'2221.6
2017-Sep-13 13:45N 38°40' E 015°42'622.7
2017-Sep-13 13:30N 38°35' E 015°46'918.2
2017-Sep-13 12:59N 38°27' E 015°53'1 1.7
2017-Sep-13 12:17N 38°27' E 015°54'0 0.0
2017-Sep-13 11:59N 38°27' E 015°54'0 0.0
2017-Sep-13 11:29N 38°27' E 015°54'0 0.0
2017-Sep-13 10:59N 38°27' E 015°54'0 0.0
2017-Sep-13 10:11N 38°27' E 015°54'0 0.0
2017-Sep-13 09:41N 38°27' E 015°54'0 0.0
2017-Sep-13 09:29N 38°27' E 015°54'0 0.0
2017-Sep-13 08:59N 38°27' E 015°54'0 0.0
2017-Sep-13 08:17N 38°27' E 015°54'0 0.0
2017-Sep-13 07:59N 38°27' E 015°54'0 0.0
2017-Sep-13 07:29N 38°27' E 015°54'0 0.0
2017-Sep-13 05:53N 38°27' E 015°54'0 0.0
2017-Sep-13 05:23N 38°27' E 015°54'0 0.0
2017-Sep-13 04:59N 38°27' E 015°54'0 0.0
2017-Sep-13 04:29N 38°27' E 015°54'0 0.0
2017-Sep-13 03:59N 38°27' E 015°54'0 0.0
2017-Sep-12 16:14N 38°27' E 015°54'1 3.0
2017-Sep-12 15:56N 38°28' E 015°55'0 0.0
2017-Sep-12 15:29N 38°28' E 015°55'0 0.0
2017-Sep-12 14:59N 38°28' E 015°55'0 0.0
2017-Sep-12 14:29N 38°28' E 015°55'0 0.0
2017-Sep-12 13:26N 38°28' E 015°55'0 0.0
2017-Sep-12 12:56N 38°28' E 015°55'0 0.0
2017-Sep-12 12:26N 38°28' E 015°55'0 0.0
2017-Sep-12 11:26N 38°28' E 015°55'0 0.0
2017-Sep-12 10:38N 38°28' E 015°55'0 0.0
2017-Sep-12 10:20N 38°28' E 015°55'0 0.0
2017-Sep-12 09:50N 38°28' E 015°55'0 0.0
2017-Sep-12 09:26N 38°28' E 015°55'0 0.0
2017-Sep-12 08:44N 38°28' E 015°55'0 0.0
2017-Sep-12 07:50N 38°28' E 015°55'0 0.0
2017-Sep-12 07:14N 38°28' E 015°55'0 0.0
2017-Sep-12 06:56N 38°28' E 015°55'0 0.0
2017-Sep-12 06:14N 38°28' E 015°55'0 0.0
2017-Sep-12 05:44N 38°28' E 015°55'0 0.0
2017-Sep-12 05:26N 38°28' E 015°55'0 0.0
2017-Sep-12 03:56N 38°28' E 015°55'0 0.0
2017-Sep-12 03:26N 38°28' E 015°55'0 0.0
2017-Sep-12 02:56N 38°28' E 015°55'0 0.0
2017-Sep-12 02:20N 38°28' E 015°55'0 0.0
2017-Sep-12 01:50N 38°28' E 015°55'0 0.0
2017-Sep-12 01:26N 38°28' E 015°55'0 0.0
2017-Sep-12 00:50N 38°28' E 015°55'0 0.0
2017-Sep-12 00:26N 38°28' E 015°55'  

Dump ship's entire track history